sensor_id;sensor_type;location;lat;lon;timestamp;P1;durP1;ratioP1;P2;durP2;ratioP2
59239;SDS011;45010;53.640;10.578;2022-07-23T00:02:52;3.05;;;0.52;;
59239;SDS011;45010;53.640;10.578;2022-07-23T00:05:52;2.15;;;0.98;;
59239;SDS011;45010;53.640;10.578;2022-07-23T00:08:53;1.20;;;0.52;;
59239;SDS011;45010;53.640;10.578;2022-07-23T00:11:53;1.27;;;0.50;;
59239;SDS011;45010;53.640;10.578;2022-07-23T00:14:53;2.47;;;0.70;;
59239;SDS011;45010;53.640;10.578;2022-07-23T00:17:54;1.73;;;0.50;;
59239;SDS011;45010;53.640;10.578;2022-07-23T00:20:54;1.20;;;0.50;;
59239;SDS011;45010;53.640;10.578;2022-07-23T00:23:54;1.42;;;0.70;;
59239;SDS011;45010;53.640;10.578;2022-07-23T00:26:55;1.83;;;0.75;;
59239;SDS011;45010;53.640;10.578;2022-07-23T00:29:55;2.42;;;0.68;;
59239;SDS011;45010;53.640;10.578;2022-07-23T00:32:57;2.97;;;0.80;;
59239;SDS011;45010;53.640;10.578;2022-07-23T00:35:59;1.85;;;0.60;;
59239;SDS011;45010;53.640;10.578;2022-07-23T00:38:59;1.67;;;0.65;;
59239;SDS011;45010;53.640;10.578;2022-07-23T00:42:00;1.35;;;0.77;;
59239;SDS011;45010;53.640;10.578;2022-07-23T00:45:00;1.88;;;0.80;;
59239;SDS011;45010;53.640;10.578;2022-07-23T00:48:00;1.45;;;0.50;;
59239;SDS011;45010;53.640;10.578;2022-07-23T00:51:01;1.33;;;0.47;;
59239;SDS011;45010;53.640;10.578;2022-07-23T00:54:01;2.95;;;0.80;;
59239;SDS011;45010;53.640;10.578;2022-07-23T00:57:01;1.67;;;0.70;;
59239;SDS011;45010;53.640;10.578;2022-07-23T01:00:03;2.20;;;0.82;;
59239;SDS011;45010;53.640;10.578;2022-07-23T01:03:08;2.10;;;0.70;;
59239;SDS011;45010;53.640;10.578;2022-07-23T01:06:09;2.70;;;0.60;;
59239;SDS011;45010;53.640;10.578;2022-07-23T01:09:09;2.25;;;0.60;;
59239;SDS011;45010;53.640;10.578;2022-07-23T01:12:10;1.90;;;0.60;;
59239;SDS011;45010;53.640;10.578;2022-07-23T01:15:10;1.52;;;0.77;;
59239;SDS011;45010;53.640;10.578;2022-07-23T01:18:11;2.63;;;0.50;;
59239;SDS011;45010;53.640;10.578;2022-07-23T01:21:12;1.77;;;0.63;;
59239;SDS011;45010;53.640;10.578;2022-07-23T01:24:13;1.65;;;0.80;;
59239;SDS011;45010;53.640;10.578;2022-07-23T01:27:14;2.60;;;0.75;;
59239;SDS011;45010;53.640;10.578;2022-07-23T01:30:15;1.65;;;0.68;;
59239;SDS011;45010;53.640;10.578;2022-07-23T01:33:15;1.90;;;0.70;;
59239;SDS011;45010;53.640;10.578;2022-07-23T01:36:15;1.55;;;0.70;;
59239;SDS011;45010;53.640;10.578;2022-07-23T01:39:16;0.90;;;0.80;;
59239;SDS011;45010;53.640;10.578;2022-07-23T01:42:16;2.17;;;0.80;;
59239;SDS011;45010;53.640;10.578;2022-07-23T01:45:16;2.33;;;0.68;;
59239;SDS011;45010;53.640;10.578;2022-07-23T01:48:16;1.02;;;0.70;;
59239;SDS011;45010;53.640;10.578;2022-07-23T01:51:17;2.85;;;0.90;;
59239;SDS011;45010;53.640;10.578;2022-07-23T01:54:17;0.90;;;0.68;;
59239;SDS011;45010;53.640;10.578;2022-07-23T01:57:17;2.25;;;0.60;;
59239;SDS011;45010;53.640;10.578;2022-07-23T02:00:18;2.08;;;0.80;;
59239;SDS011;45010;53.640;10.578;2022-07-23T02:03:18;2.08;;;0.77;;
59239;SDS011;45010;53.640;10.578;2022-07-23T02:06:19;1.48;;;0.65;;
59239;SDS011;45010;53.640;10.578;2022-07-23T02:09:19;1.92;;;0.70;;
59239;SDS011;45010;53.640;10.578;2022-07-23T02:12:19;1.30;;;0.77;;
59239;SDS011;45010;53.640;10.578;2022-07-23T02:15:20;3.20;;;0.90;;
59239;SDS011;45010;53.640;10.578;2022-07-23T02:18:20;2.50;;;0.80;;
59239;SDS011;45010;53.640;10.578;2022-07-23T02:21:20;1.92;;;0.75;;
59239;SDS011;45010;53.640;10.578;2022-07-23T02:24:21;2.70;;;0.80;;
59239;SDS011;45010;53.640;10.578;2022-07-23T02:27:21;0.80;;;0.70;;
59239;SDS011;45010;53.640;10.578;2022-07-23T02:30:23;0.90;;;0.60;;
59239;SDS011;45010;53.640;10.578;2022-07-23T02:33:23;1.33;;;0.70;;
59239;SDS011;45010;53.640;10.578;2022-07-23T02:36:23;3.00;;;0.70;;
59239;SDS011;45010;53.640;10.578;2022-07-23T02:39:24;1.52;;;0.65;;
59239;SDS011;45010;53.640;10.578;2022-07-23T02:42:24;1.65;;;0.90;;
59239;SDS011;45010;53.640;10.578;2022-07-23T02:45:25;1.95;;;0.70;;
59239;SDS011;45010;53.640;10.578;2022-07-23T02:48:25;1.55;;;0.70;;
59239;SDS011;45010;53.640;10.578;2022-07-23T02:51:26;1.65;;;0.90;;
59239;SDS011;45010;53.640;10.578;2022-07-23T02:54:26;2.17;;;0.70;;
59239;SDS011;45010;53.640;10.578;2022-07-23T02:57:26;1.27;;;0.60;;
59239;SDS011;45010;53.640;10.578;2022-07-23T03:00:27;3.08;;;0.70;;
59239;SDS011;45010;53.640;10.578;2022-07-23T03:03:27;1.52;;;0.75;;
59239;SDS011;45010;53.640;10.578;2022-07-23T03:06:27;1.45;;;0.57;;
59239;SDS011;45010;53.640;10.578;2022-07-23T03:09:28;2.15;;;0.80;;
59239;SDS011;45010;53.640;10.578;2022-07-23T03:12:28;1.50;;;0.60;;
59239;SDS011;45010;53.640;10.578;2022-07-23T03:15:28;2.00;;;0.80;;
59239;SDS011;45010;53.640;10.578;2022-07-23T03:18:29;1.67;;;0.90;;
59239;SDS011;45010;53.640;10.578;2022-07-23T03:21:29;1.30;;;0.70;;
59239;SDS011;45010;53.640;10.578;2022-07-23T03:24:29;1.45;;;0.80;;
59239;SDS011;45010;53.640;10.578;2022-07-23T03:27:56;1.98;;;0.80;;
59239;SDS011;45010;53.640;10.578;2022-07-23T03:30:56;1.45;;;0.88;;
59239;SDS011;45010;53.640;10.578;2022-07-23T03:33:57;1.42;;;0.63;;
59239;SDS011;45010;53.640;10.578;2022-07-23T03:36:58;1.77;;;1.02;;
59239;SDS011;45010;53.640;10.578;2022-07-23T03:39:58;1.92;;;0.80;;
59239;SDS011;45010;53.640;10.578;2022-07-23T03:42:58;1.77;;;0.57;;
59239;SDS011;45010;53.640;10.578;2022-07-23T03:45:59;1.65;;;0.57;;
59239;SDS011;45010;53.640;10.578;2022-07-23T03:48:59;1.65;;;0.50;;
59239;SDS011;45010;53.640;10.578;2022-07-23T03:51:59;1.63;;;0.90;;
59239;SDS011;45010;53.640;10.578;2022-07-23T03:55:00;1.80;;;0.60;;
59239;SDS011;45010;53.640;10.578;2022-07-23T03:58:01;1.15;;;0.40;;
59239;SDS011;45010;53.640;10.578;2022-07-23T04:01:02;1.42;;;0.50;;
59239;SDS011;45010;53.640;10.578;2022-07-23T04:04:03;1.15;;;0.80;;
59239;SDS011;45010;53.640;10.578;2022-07-23T04:07:03;1.58;;;0.70;;
59239;SDS011;45010;53.640;10.578;2022-07-23T04:10:04;2.17;;;0.57;;
59239;SDS011;45010;53.640;10.578;2022-07-23T04:13:04;0.93;;;0.60;;
59239;SDS011;45010;53.640;10.578;2022-07-23T04:16:05;1.40;;;0.50;;
59239;SDS011;45010;53.640;10.578;2022-07-23T04:19:06;2.67;;;0.70;;
59239;SDS011;45010;53.640;10.578;2022-07-23T04:22:07;1.30;;;0.57;;
59239;SDS011;45010;53.640;10.578;2022-07-23T04:25:07;1.38;;;0.60;;
59239;SDS011;45010;53.640;10.578;2022-07-23T04:28:08;3.13;;;0.82;;
59239;SDS011;45010;53.640;10.578;2022-07-23T04:31:09;1.38;;;0.50;;
59239;SDS011;45010;53.640;10.578;2022-07-23T04:34:09;5.05;;;0.60;;
59239;SDS011;45010;53.640;10.578;2022-07-23T04:37:09;2.17;;;0.70;;
59239;SDS011;45010;53.640;10.578;2022-07-23T04:40:10;3.10;;;0.70;;
59239;SDS011;45010;53.640;10.578;2022-07-23T04:43:11;3.40;;;0.65;;
59239;SDS011;45010;53.640;10.578;2022-07-23T04:46:12;1.92;;;0.63;;
59239;SDS011;45010;53.640;10.578;2022-07-23T04:49:12;2.13;;;0.60;;
59239;SDS011;45010;53.640;10.578;2022-07-23T04:52:12;2.58;;;0.63;;
59239;SDS011;45010;53.640;10.578;2022-07-23T04:55:15;3.33;;;0.65;;
59239;SDS011;45010;53.640;10.578;2022-07-23T04:58:15;4.13;;;0.60;;
59239;SDS011;45010;53.640;10.578;2022-07-23T05:01:16;2.10;;;0.68;;
59239;SDS011;45010;53.640;10.578;2022-07-23T05:04:16;1.67;;;0.80;;
59239;SDS011;45010;53.640;10.578;2022-07-23T05:07:16;1.83;;;0.70;;
59239;SDS011;45010;53.640;10.578;2022-07-23T05:10:17;0.98;;;0.60;;
59239;SDS011;45010;53.640;10.578;2022-07-23T05:13:17;0.98;;;0.38;;
59239;SDS011;45010;53.640;10.578;2022-07-23T05:16:18;0.60;;;0.45;;
59239;SDS011;45010;53.640;10.578;2022-07-23T05:19:18;2.45;;;0.47;;
59239;SDS011;45010;53.640;10.578;2022-07-23T05:22:18;0.98;;;0.70;;
59239;SDS011;45010;53.640;10.578;2022-07-23T05:25:18;2.58;;;0.50;;
59239;SDS011;45010;53.640;10.578;2022-07-23T05:28:19;2.15;;;0.52;;
59239;SDS011;45010;53.640;10.578;2022-07-23T05:31:19;1.67;;;0.50;;
59239;SDS011;45010;53.640;10.578;2022-07-23T05:34:20;3.03;;;0.60;;
59239;SDS011;45010;53.640;10.578;2022-07-23T05:37:20;3.08;;;0.70;;
59239;SDS011;45010;53.640;10.578;2022-07-23T05:40:20;1.00;;;0.45;;
59239;SDS011;45010;53.640;10.578;2022-07-23T05:43:21;1.90;;;0.50;;
59239;SDS011;45010;53.640;10.578;2022-07-23T05:46:21;0.88;;;0.52;;
59239;SDS011;45010;53.640;10.578;2022-07-23T05:49:22;2.10;;;0.60;;
59239;SDS011;45010;53.640;10.578;2022-07-23T05:52:22;1.05;;;0.52;;
59239;SDS011;45010;53.640;10.578;2022-07-23T05:55:22;1.23;;;0.50;;
59239;SDS011;45010;53.640;10.578;2022-07-23T05:58:22;1.38;;;0.60;;
59239;SDS011;45010;53.640;10.578;2022-07-23T06:01:23;3.50;;;0.85;;
59239;SDS011;45010;53.640;10.578;2022-07-23T06:04:23;2.45;;;0.63;;
59239;SDS011;45010;53.640;10.578;2022-07-23T06:07:23;1.10;;;0.50;;
59239;SDS011;45010;53.640;10.578;2022-07-23T06:10:24;1.85;;;0.65;;
59239;SDS011;45010;53.640;10.578;2022-07-23T06:13:24;2.00;;;0.60;;
59239;SDS011;45010;53.640;10.578;2022-07-23T06:16:25;2.72;;;0.80;;
59239;SDS011;45010;53.640;10.578;2022-07-23T06:19:25;1.05;;;0.50;;
59239;SDS011;45010;53.640;10.578;2022-07-23T06:22:25;2.97;;;0.60;;
59239;SDS011;45010;53.640;10.578;2022-07-23T06:25:26;2.13;;;0.60;;
59239;SDS011;45010;53.640;10.578;2022-07-23T06:28:26;0.93;;;0.47;;
59239;SDS011;45010;53.640;10.578;2022-07-23T06:31:27;1.90;;;0.65;;
59239;SDS011;45010;53.640;10.578;2022-07-23T06:34:27;2.33;;;0.60;;
59239;SDS011;45010;53.640;10.578;2022-07-23T06:37:27;1.52;;;0.70;;
59239;SDS011;45010;53.640;10.578;2022-07-23T06:40:28;2.15;;;0.55;;
59239;SDS011;45010;53.640;10.578;2022-07-23T06:43:29;1.30;;;0.50;;
59239;SDS011;45010;53.640;10.578;2022-07-23T06:46:30;1.92;;;0.70;;
59239;SDS011;45010;53.640;10.578;2022-07-23T06:49:30;1.67;;;0.57;;
59239;SDS011;45010;53.640;10.578;2022-07-23T06:52:31;0.90;;;0.50;;
59239;SDS011;45010;53.640;10.578;2022-07-23T06:55:31;1.00;;;0.60;;
59239;SDS011;45010;53.640;10.578;2022-07-23T06:58:32;0.55;;;0.50;;
59239;SDS011;45010;53.640;10.578;2022-07-23T07:01:32;2.10;;;0.60;;
59239;SDS011;45010;53.640;10.578;2022-07-23T07:04:33;1.25;;;0.50;;
59239;SDS011;45010;53.640;10.578;2022-07-23T07:07:33;1.10;;;0.60;;
59239;SDS011;45010;53.640;10.578;2022-07-23T07:10:34;1.98;;;0.77;;
59239;SDS011;45010;53.640;10.578;2022-07-23T07:13:35;1.27;;;0.60;;
59239;SDS011;45010;53.640;10.578;2022-07-23T07:16:36;1.92;;;0.50;;
59239;SDS011;45010;53.640;10.578;2022-07-23T07:19:36;2.50;;;0.60;;
59239;SDS011;45010;53.640;10.578;2022-07-23T07:22:36;1.27;;;0.50;;
59239;SDS011;45010;53.640;10.578;2022-07-23T07:25:37;3.65;;;0.60;;
59239;SDS011;45010;53.640;10.578;2022-07-23T07:28:37;0.98;;;0.40;;
59239;SDS011;45010;53.640;10.578;2022-07-23T07:31:37;1.45;;;0.52;;
59239;SDS011;45010;53.640;10.578;2022-07-23T07:34:38;0.93;;;0.38;;
59239;SDS011;45010;53.640;10.578;2022-07-23T07:37:38;1.00;;;0.55;;
59239;SDS011;45010;53.640;10.578;2022-07-23T07:40:38;1.30;;;0.50;;
59239;SDS011;45010;53.640;10.578;2022-07-23T07:43:39;2.38;;;0.60;;
59239;SDS011;45010;53.640;10.578;2022-07-23T07:46:39;2.03;;;0.50;;
59239;SDS011;45010;53.640;10.578;2022-07-23T07:49:39;1.65;;;0.60;;
59239;SDS011;45010;53.640;10.578;2022-07-23T07:52:40;0.75;;;0.40;;
59239;SDS011;45010;53.640;10.578;2022-07-23T07:55:40;0.88;;;0.30;;
59239;SDS011;45010;53.640;10.578;2022-07-23T07:58:40;0.88;;;0.40;;
59239;SDS011;45010;53.640;10.578;2022-07-23T08:01:41;2.15;;;0.45;;
59239;SDS011;45010;53.640;10.578;2022-07-23T08:04:41;1.88;;;0.40;;
59239;SDS011;45010;53.640;10.578;2022-07-23T08:07:41;1.05;;;0.40;;
59239;SDS011;45010;53.640;10.578;2022-07-23T08:10:42;1.15;;;0.40;;
59239;SDS011;45010;53.640;10.578;2022-07-23T08:13:43;0.32;;;0.25;;
59239;SDS011;45010;53.640;10.578;2022-07-23T08:16:44;1.10;;;0.30;;
59239;SDS011;45010;53.640;10.578;2022-07-23T08:19:44;1.67;;;0.40;;
59239;SDS011;45010;53.640;10.578;2022-07-23T08:22:49;0.75;;;0.30;;
59239;SDS011;45010;53.640;10.578;2022-07-23T08:25:49;1.48;;;0.43;;
59239;SDS011;45010;53.640;10.578;2022-07-23T08:28:49;0.60;;;0.30;;
59239;SDS011;45010;53.640;10.578;2022-07-23T08:31:50;1.30;;;0.30;;
59239;SDS011;45010;53.640;10.578;2022-07-23T08:34:50;1.27;;;0.30;;
59239;SDS011;45010;53.640;10.578;2022-07-23T08:37:50;0.45;;;0.35;;
59239;SDS011;45010;53.640;10.578;2022-07-23T08:40:52;0.63;;;0.40;;
59239;SDS011;45010;53.640;10.578;2022-07-23T08:43:54;0.85;;;0.30;;
59239;SDS011;45010;53.640;10.578;2022-07-23T08:46:54;2.20;;;0.40;;
59239;SDS011;45010;53.640;10.578;2022-07-23T08:49:56;1.05;;;0.40;;
59239;SDS011;45010;53.640;10.578;2022-07-23T08:52:58;1.25;;;0.47;;
59239;SDS011;45010;53.640;10.578;2022-07-23T08:56:00;1.02;;;0.30;;
59239;SDS011;45010;53.640;10.578;2022-07-23T08:59:03;1.42;;;0.40;;
59239;SDS011;45010;53.640;10.578;2022-07-23T09:02:03;1.42;;;0.50;;
59239;SDS011;45010;53.640;10.578;2022-07-23T09:05:03;0.60;;;0.40;;
59239;SDS011;45010;53.640;10.578;2022-07-23T09:11:19;0.90;;;0.65;;
59239;SDS011;45010;53.640;10.578;2022-07-23T09:14:35;0.77;;;0.40;;
59239;SDS011;45010;53.640;10.578;2022-07-23T09:17:41;1.42;;;0.35;;
59239;SDS011;45010;53.640;10.578;2022-07-23T09:20:43;0.77;;;0.77;;
59239;SDS011;45010;53.640;10.578;2022-07-23T09:23:59;1.23;;;0.60;;
59239;SDS011;45010;53.640;10.578;2022-07-23T09:27:01;1.17;;;0.57;;
59239;SDS011;45010;53.640;10.578;2022-07-23T09:30:02;1.95;;;0.50;;
59239;SDS011;45010;53.640;10.578;2022-07-23T09:33:10;1.60;;;0.40;;
59239;SDS011;45010;53.640;10.578;2022-07-23T09:36:15;0.93;;;0.50;;
59239;SDS011;45010;53.640;10.578;2022-07-23T09:39:16;2.35;;;0.65;;
59239;SDS011;45010;53.640;10.578;2022-07-23T09:42:32;1.88;;;0.50;;
59239;SDS011;45010;53.640;10.578;2022-07-23T09:45:33;1.90;;;0.50;;
59239;SDS011;45010;53.640;10.578;2022-07-23T09:48:33;1.45;;;0.50;;
59239;SDS011;45010;53.640;10.578;2022-07-23T09:51:35;1.98;;;0.50;;
59239;SDS011;45010;53.640;10.578;2022-07-23T09:54:43;1.92;;;0.50;;
59239;SDS011;45010;53.640;10.578;2022-07-23T09:57:44;0.90;;;0.60;;
59239;SDS011;45010;53.640;10.578;2022-07-23T10:00:47;1.52;;;0.60;;
59239;SDS011;45010;53.640;10.578;2022-07-23T10:03:49;0.95;;;0.50;;
59239;SDS011;45010;53.640;10.578;2022-07-23T10:06:51;2.70;;;0.40;;
59239;SDS011;45010;53.640;10.578;2022-07-23T10:09:53;1.38;;;0.40;;
59239;SDS011;45010;53.640;10.578;2022-07-23T10:12:54;3.00;;;0.60;;
59239;SDS011;45010;53.640;10.578;2022-07-23T10:15:58;2.20;;;0.50;;
59239;SDS011;45010;53.640;10.578;2022-07-23T10:18:59;3.92;;;0.63;;
59239;SDS011;45010;53.640;10.578;2022-07-23T10:22:00;1.13;;;0.47;;
59239;SDS011;45010;53.640;10.578;2022-07-23T10:25:11;1.30;;;0.40;;
59239;SDS011;45010;53.640;10.578;2022-07-23T10:28:24;1.95;;;0.52;;
59239;SDS011;45010;53.640;10.578;2022-07-23T10:34:53;4.40;;;0.43;;
59239;SDS011;45010;53.640;10.578;2022-07-23T10:38:20;3.20;;;0.40;;
59239;SDS011;45010;53.640;10.578;2022-07-23T10:41:45;0.52;;;0.20;;
59239;SDS011;45010;53.640;10.578;2022-07-23T10:44:46;2.13;;;0.32;;
59239;SDS011;45010;53.640;10.578;2022-07-23T10:47:47;2.90;;;0.40;;
59239;SDS011;45010;53.640;10.578;2022-07-23T10:54:20;1.00;;;0.30;;
59239;SDS011;45010;53.640;10.578;2022-07-23T10:57:23;0.85;;;0.30;;
59239;SDS011;45010;53.640;10.578;2022-07-23T11:00:25;3.95;;;0.57;;
59239;SDS011;45010;53.640;10.578;2022-07-23T11:03:28;0.75;;;0.30;;
59239;SDS011;45010;53.640;10.578;2022-07-23T11:09:50;0.50;;;0.30;;
59239;SDS011;45010;53.640;10.578;2022-07-23T11:12:51;1.38;;;0.40;;
59239;SDS011;45010;53.640;10.578;2022-07-23T11:19:03;0.85;;;0.30;;
59239;SDS011;45010;53.640;10.578;2022-07-23T11:22:04;1.17;;;0.28;;
59239;SDS011;45010;53.640;10.578;2022-07-23T11:25:04;2.42;;;0.55;;
59239;SDS011;45010;53.640;10.578;2022-07-23T11:28:10;1.08;;;0.40;;
59239;SDS011;45010;53.640;10.578;2022-07-23T11:31:18;1.67;;;0.30;;
59239;SDS011;45010;53.640;10.578;2022-07-23T11:37:39;2.05;;;0.43;;
59239;SDS011;45010;53.640;10.578;2022-07-23T11:40:40;0.88;;;0.30;;
59239;SDS011;45010;53.640;10.578;2022-07-23T11:43:43;1.58;;;0.30;;
59239;SDS011;45010;53.640;10.578;2022-07-23T11:46:54;0.47;;;0.30;;
59239;SDS011;45010;53.640;10.578;2022-07-23T11:49:59;1.30;;;0.40;;
59239;SDS011;45010;53.640;10.578;2022-07-23T11:53:01;0.57;;;0.30;;
59239;SDS011;45010;53.640;10.578;2022-07-23T11:56:03;1.02;;;0.40;;
59239;SDS011;45010;53.640;10.578;2022-07-23T11:59:08;1.05;;;0.40;;
59239;SDS011;45010;53.640;10.578;2022-07-23T12:02:08;0.40;;;0.38;;
59239;SDS011;45010;53.640;10.578;2022-07-23T12:05:12;1.40;;;0.60;;
59239;SDS011;45010;53.640;10.578;2022-07-23T12:08:14;0.77;;;0.28;;
59239;SDS011;45010;53.640;10.578;2022-07-23T12:11:15;1.23;;;0.28;;
59239;SDS011;45010;53.640;10.578;2022-07-23T12:14:15;0.20;;;0.20;;
59239;SDS011;45010;53.640;10.578;2022-07-23T12:17:15;1.50;;;0.30;;
59239;SDS011;45010;53.640;10.578;2022-07-23T12:20:18;0.35;;;0.35;;
59239;SDS011;45010;53.640;10.578;2022-07-23T12:23:22;1.17;;;0.35;;
59239;SDS011;45010;53.640;10.578;2022-07-23T12:26:23;0.30;;;0.20;;
59239;SDS011;45010;53.640;10.578;2022-07-23T12:29:33;1.95;;;0.20;;
59239;SDS011;45010;53.640;10.578;2022-07-23T12:32:34;1.40;;;0.30;;
59239;SDS011;45010;53.640;10.578;2022-07-23T12:38:48;2.05;;;0.30;;
59239;SDS011;45010;53.640;10.578;2022-07-23T12:41:52;1.38;;;0.30;;
59239;SDS011;45010;53.640;10.578;2022-07-23T12:45:03;2.35;;;0.40;;
59239;SDS011;45010;53.640;10.578;2022-07-23T12:48:05;2.08;;;0.82;;
59239;SDS011;45010;53.640;10.578;2022-07-23T12:51:08;1.00;;;0.30;;
59239;SDS011;45010;53.640;10.578;2022-07-23T12:54:09;0.77;;;0.20;;
59239;SDS011;45010;53.640;10.578;2022-07-23T12:57:10;0.35;;;0.20;;
59239;SDS011;45010;53.640;10.578;2022-07-23T13:00:10;0.60;;;0.20;;
59239;SDS011;45010;53.640;10.578;2022-07-23T13:03:20;0.50;;;0.25;;
59239;SDS011;45010;53.640;10.578;2022-07-23T13:06:21;0.47;;;0.38;;
59239;SDS011;45010;53.640;10.578;2022-07-23T13:09:22;0.60;;;0.25;;
59239;SDS011;45010;53.640;10.578;2022-07-23T13:12:24;2.00;;;0.30;;
59239;SDS011;45010;53.640;10.578;2022-07-23T13:15:24;0.50;;;0.30;;
59239;SDS011;45010;53.640;10.578;2022-07-23T13:18:25;0.20;;;0.20;;
59239;SDS011;45010;53.640;10.578;2022-07-23T13:21:27;0.88;;;0.30;;
59239;SDS011;45010;53.640;10.578;2022-07-23T13:24:28;1.15;;;0.40;;
59239;SDS011;45010;53.640;10.578;2022-07-23T13:27:28;2.20;;;0.30;;
59239;SDS011;45010;53.640;10.578;2022-07-23T13:30:29;0.50;;;0.32;;
59239;SDS011;45010;53.640;10.578;2022-07-23T13:33:29;3.33;;;0.38;;
59239;SDS011;45010;53.640;10.578;2022-07-23T13:36:30;0.63;;;0.40;;
59239;SDS011;45010;53.640;10.578;2022-07-23T13:39:30;0.45;;;0.38;;
59239;SDS011;45010;53.640;10.578;2022-07-23T13:42:30;0.57;;;0.30;;
59239;SDS011;45010;53.640;10.578;2022-07-23T13:45:31;0.95;;;0.32;;
59239;SDS011;45010;53.640;10.578;2022-07-23T13:48:32;1.05;;;0.40;;
59239;SDS011;45010;53.640;10.578;2022-07-23T13:51:32;2.40;;;0.60;;
59239;SDS011;45010;53.640;10.578;2022-07-23T13:54:32;0.80;;;0.40;;
59239;SDS011;45010;53.640;10.578;2022-07-23T13:57:33;1.77;;;0.40;;
59239;SDS011;45010;53.640;10.578;2022-07-23T14:00:34;1.95;;;0.40;;
59239;SDS011;45010;53.640;10.578;2022-07-23T14:03:36;2.00;;;0.50;;
59239;SDS011;45010;53.640;10.578;2022-07-23T14:06:37;1.10;;;0.38;;
59239;SDS011;45010;53.640;10.578;2022-07-23T14:09:37;1.10;;;0.40;;
59239;SDS011;45010;53.640;10.578;2022-07-23T14:12:38;1.25;;;0.20;;
59239;SDS011;45010;53.640;10.578;2022-07-23T14:15:38;0.93;;;0.20;;
59239;SDS011;45010;53.640;10.578;2022-07-23T14:18:40;0.80;;;0.30;;
59239;SDS011;45010;53.640;10.578;2022-07-23T14:21:40;0.70;;;0.35;;
59239;SDS011;45010;53.640;10.578;2022-07-23T14:24:41;1.38;;;0.30;;
59239;SDS011;45010;53.640;10.578;2022-07-23T14:27:41;0.30;;;0.30;;
59239;SDS011;45010;53.640;10.578;2022-07-23T14:30:42;0.38;;;0.30;;
59239;SDS011;45010;53.640;10.578;2022-07-23T14:33:43;0.68;;;0.30;;
59239;SDS011;45010;53.640;10.578;2022-07-23T14:36:43;0.25;;;0.20;;
59239;SDS011;45010;53.640;10.578;2022-07-23T14:39:44;0.63;;;0.30;;
59239;SDS011;45010;53.640;10.578;2022-07-23T14:42:45;0.50;;;0.35;;
59239;SDS011;45010;53.640;10.578;2022-07-23T14:45:45;1.38;;;0.30;;
59239;SDS011;45010;53.640;10.578;2022-07-23T14:48:45;0.30;;;0.20;;
59239;SDS011;45010;53.640;10.578;2022-07-23T14:51:46;1.20;;;0.38;;
59239;SDS011;45010;53.640;10.578;2022-07-23T14:54:46;1.02;;;0.60;;
59239;SDS011;45010;53.640;10.578;2022-07-23T14:57:47;1.02;;;0.35;;
59239;SDS011;45010;53.640;10.578;2022-07-23T15:00:47;0.70;;;0.30;;
59239;SDS011;45010;53.640;10.578;2022-07-23T15:03:48;0.88;;;0.40;;
59239;SDS011;45010;53.640;10.578;2022-07-23T15:06:49;3.20;;;0.32;;
59239;SDS011;45010;53.640;10.578;2022-07-23T15:09:50;1.17;;;0.40;;
59239;SDS011;45010;53.640;10.578;2022-07-23T15:12:50;0.85;;;0.30;;
59239;SDS011;45010;53.640;10.578;2022-07-23T15:15:50;1.10;;;0.32;;
59239;SDS011;45010;53.640;10.578;2022-07-23T15:18:51;0.43;;;0.40;;
59239;SDS011;45010;53.640;10.578;2022-07-23T15:21:51;0.90;;;0.40;;
59239;SDS011;45010;53.640;10.578;2022-07-23T15:24:51;1.05;;;0.40;;
59239;SDS011;45010;53.640;10.578;2022-07-23T15:27:52;0.95;;;0.45;;
59239;SDS011;45010;53.640;10.578;2022-07-23T15:30:52;2.20;;;0.30;;
59239;SDS011;45010;53.640;10.578;2022-07-23T15:33:52;1.00;;;0.63;;
59239;SDS011;45010;53.640;10.578;2022-07-23T15:36:53;0.93;;;0.50;;
59239;SDS011;45010;53.640;10.578;2022-07-23T15:39:53;1.08;;;0.50;;
59239;SDS011;45010;53.640;10.578;2022-07-23T15:42:53;2.05;;;0.40;;
59239;SDS011;45010;53.640;10.578;2022-07-23T15:45:54;2.08;;;1.00;;
59239;SDS011;45010;53.640;10.578;2022-07-23T15:48:54;1.45;;;1.10;;
59239;SDS011;45010;53.640;10.578;2022-07-23T15:51:55;49.92;;;33.03;;
59239;SDS011;45010;53.640;10.578;2022-07-23T15:54:55;38.05;;;23.92;;
59239;SDS011;45010;53.640;10.578;2022-07-23T15:57:55;47.25;;;32.20;;
59239;SDS011;45010;53.640;10.578;2022-07-23T16:00:56;68.90;;;51.58;;
59239;SDS011;45010;53.640;10.578;2022-07-23T16:03:57;56.15;;;44.97;;
59239;SDS011;45010;53.640;10.578;2022-07-23T16:07:00;35.13;;;27.05;;
59239;SDS011;45010;53.640;10.578;2022-07-23T16:10:01;15.65;;;11.85;;
59239;SDS011;45010;53.640;10.578;2022-07-23T16:13:01;14.05;;;10.77;;
59239;SDS011;45010;53.640;10.578;2022-07-23T16:16:02;11.48;;;7.90;;
59239;SDS011;45010;53.640;10.578;2022-07-23T16:19:04;5.47;;;4.13;;
59239;SDS011;45010;53.640;10.578;2022-07-23T16:22:04;3.13;;;2.30;;
59239;SDS011;45010;53.640;10.578;2022-07-23T16:25:05;3.72;;;2.42;;
59239;SDS011;45010;53.640;10.578;2022-07-23T16:28:06;3.95;;;2.25;;
59239;SDS011;45010;53.640;10.578;2022-07-23T16:31:07;2.63;;;1.55;;
59239;SDS011;45010;53.640;10.578;2022-07-23T16:34:07;3.90;;;1.08;;
59239;SDS011;45010;53.640;10.578;2022-07-23T16:37:08;1.75;;;0.70;;
59239;SDS011;45010;53.640;10.578;2022-07-23T16:40:10;1.73;;;0.70;;
59239;SDS011;45010;53.640;10.578;2022-07-23T16:43:11;3.03;;;0.70;;
59239;SDS011;45010;53.640;10.578;2022-07-23T16:46:11;1.42;;;0.55;;
59239;SDS011;45010;53.640;10.578;2022-07-23T16:49:11;2.53;;;0.70;;
59239;SDS011;45010;53.640;10.578;2022-07-23T16:52:11;4.38;;;0.80;;
59239;SDS011;45010;53.640;10.578;2022-07-23T16:55:12;2.75;;;0.50;;
59239;SDS011;45010;53.640;10.578;2022-07-23T16:58:12;4.50;;;0.60;;
59239;SDS011;45010;53.640;10.578;2022-07-23T17:01:13;2.22;;;0.47;;
59239;SDS011;45010;53.640;10.578;2022-07-23T17:04:13;3.25;;;0.50;;
59239;SDS011;45010;53.640;10.578;2022-07-23T17:07:14;2.83;;;0.60;;
59239;SDS011;45010;53.640;10.578;2022-07-23T17:10:14;3.65;;;0.70;;
59239;SDS011;45010;53.640;10.578;2022-07-23T17:13:14;1.02;;;0.40;;
59239;SDS011;45010;53.640;10.578;2022-07-23T17:16:15;0.55;;;0.50;;
59239;SDS011;45010;53.640;10.578;2022-07-23T17:19:16;2.35;;;0.75;;
59239;SDS011;45010;53.640;10.578;2022-07-23T17:22:16;1.08;;;0.52;;
59239;SDS011;45010;53.640;10.578;2022-07-23T17:25:16;1.20;;;0.30;;
59239;SDS011;45010;53.640;10.578;2022-07-23T17:28:19;1.17;;;0.47;;
59239;SDS011;45010;53.640;10.578;2022-07-23T17:31:19;0.98;;;0.68;;
59239;SDS011;45010;53.640;10.578;2022-07-23T17:34:20;1.08;;;0.50;;
59239;SDS011;45010;53.640;10.578;2022-07-23T17:37:20;2.83;;;0.47;;
59239;SDS011;45010;53.640;10.578;2022-07-23T17:40:21;3.60;;;0.50;;
59239;SDS011;45010;53.640;10.578;2022-07-23T17:43:21;0.90;;;0.43;;
59239;SDS011;45010;53.640;10.578;2022-07-23T17:46:22;1.63;;;0.40;;
59239;SDS011;45010;53.640;10.578;2022-07-23T17:49:22;1.73;;;0.40;;
59239;SDS011;45010;53.640;10.578;2022-07-23T17:52:23;1.30;;;0.32;;
59239;SDS011;45010;53.640;10.578;2022-07-23T17:55:23;0.73;;;0.40;;
59239;SDS011;45010;53.640;10.578;2022-07-23T17:58:25;0.88;;;0.50;;
59239;SDS011;45010;53.640;10.578;2022-07-23T18:01:25;1.45;;;0.50;;
59239;SDS011;45010;53.640;10.578;2022-07-23T18:04:25;1.33;;;0.45;;
59239;SDS011;45010;53.640;10.578;2022-07-23T18:07:26;0.77;;;0.38;;
59239;SDS011;45010;53.640;10.578;2022-07-23T18:10:26;1.77;;;0.30;;
59239;SDS011;45010;53.640;10.578;2022-07-23T18:13:27;1.33;;;0.40;;
59239;SDS011;45010;53.640;10.578;2022-07-23T18:16:27;0.32;;;0.32;;
59239;SDS011;45010;53.640;10.578;2022-07-23T18:19:27;1.55;;;0.30;;